createdAt,value
2023-05-09T00:02:02.240Z,9.80
2023-05-09T00:07:04.110Z,9.80
2023-05-09T00:12:06.239Z,9.70
2023-05-09T00:17:08.213Z,9.70
2023-05-09T00:22:12.765Z,9.60
2023-05-09T00:27:15.231Z,9.60
2023-05-09T00:32:17.002Z,9.60
2023-05-09T00:37:19.299Z,9.60
2023-05-09T00:42:21.145Z,9.50
2023-05-09T00:47:24.207Z,9.50
2023-05-09T00:52:26.576Z,9.50
2023-05-09T00:57:28.258Z,9.40
2023-05-09T01:02:31.590Z,9.40
2023-05-09T01:07:39.375Z,9.40
2023-05-09T01:12:44.261Z,9.40
2023-05-09T01:17:51.787Z,9.30
2023-05-09T01:23:21.784Z,9.30
2023-05-09T01:28:36.551Z,9.30
2023-05-09T01:33:41.600Z,9.30
2023-05-09T01:38:45.179Z,9.30
2023-05-09T01:43:50.476Z,9.30
2023-05-09T01:48:53.506Z,9.30
2023-05-09T01:53:57.519Z,9.30
2023-05-09T01:59:02.311Z,9.30
2023-05-09T02:04:05.230Z,9.30
2023-05-09T02:09:07.406Z,9.20
2023-05-09T02:14:09.391Z,9.30
2023-05-09T02:19:11.197Z,9.30
2023-05-09T02:24:13.059Z,9.30
2023-05-09T02:29:19.177Z,9.30
2023-05-09T02:34:21.234Z,9.30
2023-05-09T02:39:23.098Z,9.30
2023-05-09T02:44:24.935Z,9.30
2023-05-09T02:49:32.097Z,9.20
2023-05-09T02:54:35.591Z,9.20
2023-05-09T02:59:37.456Z,9.20
2023-05-09T03:04:39.325Z,9.20
2023-05-09T03:09:41.483Z,9.10
2023-05-09T03:14:43.715Z,9.10
2023-05-09T03:19:45.712Z,9.10
2023-05-09T03:24:47.539Z,9.10
2023-05-09T03:29:49.519Z,9.10
2023-05-09T03:34:54.619Z,9.10
2023-05-09T03:39:56.461Z,9.10
2023-05-09T03:44:58.494Z,9.00
2023-05-09T03:50:00.337Z,9.00
2023-05-09T03:55:02.924Z,9.00
2023-05-09T04:00:10.244Z,9.00
2023-05-09T04:05:27.384Z,8.90
2023-05-09T04:10:30.954Z,8.90
2023-05-09T04:15:33.105Z,8.90
2023-05-09T04:20:35.068Z,8.90
2023-05-09T04:25:37.280Z,8.90
2023-05-09T04:30:39.160Z,9.00
2023-05-09T04:35:41.746Z,9.00
2023-05-09T04:40:44.124Z,9.00
2023-05-09T04:45:46.546Z,9.00
2023-05-09T04:50:49.755Z,9.00
2023-05-09T04:55:51.961Z,9.00
2023-05-09T05:00:54.595Z,9.10
2023-05-09T05:05:57.137Z,9.20
2023-05-09T05:10:59.054Z,9.30
2023-05-09T05:16:01.064Z,9.40
2023-05-09T05:21:03.080Z,9.50
2023-05-09T05:26:05.406Z,9.60
2023-05-09T05:31:09.434Z,9.70
2023-05-09T05:36:11.521Z,9.80
2023-05-09T05:41:15.584Z,9.90
2023-05-09T05:46:18.215Z,10.10
2023-05-09T05:51:20.276Z,10.20
2023-05-09T05:56:22.759Z,10.40
2023-05-09T06:01:24.910Z,10.50
2023-05-09T06:06:27.303Z,10.70
2023-05-09T06:11:30.071Z,10.90
2023-05-09T06:16:32.182Z,11.20
2023-05-09T06:21:34.406Z,11.30
2023-05-09T06:26:36.860Z,11.50
2023-05-09T06:31:40.832Z,11.60
2023-05-09T06:36:42.703Z,11.70
2023-05-09T06:41:44.466Z,11.80
2023-05-09T06:46:46.400Z,12.10
2023-05-09T06:51:48.158Z,12.20
2023-05-09T06:56:49.901Z,12.30
2023-05-09T07:01:51.773Z,12.40
2023-05-09T07:06:53.570Z,12.50
2023-05-09T07:11:55.767Z,12.90
2023-05-09T07:17:09.943Z,12.80
2023-05-09T07:22:19.619Z,13.00
2023-05-09T07:27:21.394Z,13.00
2023-05-09T07:32:23.264Z,13.20
2023-05-09T07:37:25.220Z,13.40
2023-05-09T07:42:27.086Z,13.40
2023-05-09T07:47:28.899Z,13.50
2023-05-09T07:52:30.731Z,13.70
2023-05-09T07:57:32.524Z,13.90
2023-05-09T08:02:34.396Z,14.00
2023-05-09T08:07:37.021Z,14.10
2023-05-09T08:12:39.162Z,14.40
2023-05-09T08:17:40.917Z,14.50
2023-05-09T08:22:42.828Z,14.60
2023-05-09T08:27:44.748Z,14.90
2023-05-09T08:32:46.469Z,14.90
2023-05-09T08:37:48.314Z,15.00
2023-05-09T08:42:50.412Z,15.00
2023-05-09T08:47:53.216Z,15.00
2023-05-09T08:52:55.330Z,15.10
2023-05-09T08:57:58.146Z,15.20
2023-05-09T09:03:03.221Z,15.30
2023-05-09T09:08:07.652Z,15.50
2023-05-09T09:13:12.479Z,15.50
2023-05-09T09:18:23.227Z,15.60
2023-05-09T09:23:27.174Z,15.80
2023-05-09T09:28:29.746Z,15.90
2023-05-09T09:33:31.490Z,16.10
2023-05-09T09:38:41.229Z,16.30
2023-05-09T09:43:46.564Z,16.30
2023-05-09T09:48:55.702Z,16.40
2023-05-09T09:53:57.426Z,16.50
2023-05-09T09:59:13.629Z,16.70
2023-05-09T10:04:16.771Z,16.80
2023-05-09T10:09:18.945Z,16.90
2023-05-09T10:14:23.313Z,17.00
2023-05-09T10:19:27.319Z,17.00
2023-05-09T10:24:52.488Z,17.10
2023-05-09T10:30:16.969Z,17.20
2023-05-09T10:35:21.996Z,17.30
2023-05-09T10:40:24.052Z,17.40
2023-05-09T10:45:26.822Z,17.60
2023-05-09T10:50:28.828Z,17.70
2023-05-09T10:55:56.431Z,17.80
2023-05-09T11:01:04.522Z,17.80
2023-05-09T11:06:06.459Z,17.80
2023-05-09T11:11:22.341Z,17.90
2023-05-09T11:16:26.617Z,17.80
2023-05-09T11:21:29.021Z,17.80
2023-05-09T11:26:32.681Z,17.90
2023-05-09T11:31:34.502Z,18.00
2023-05-09T11:36:36.874Z,18.00
2023-05-09T11:41:40.923Z,18.20
2023-05-09T11:46:43.580Z,18.10
2023-05-09T11:51:45.364Z,18.30
2023-05-09T11:56:47.154Z,18.30
2023-05-09T12:01:49.022Z,18.40
2023-05-09T12:06:51.817Z,18.40
2023-05-09T12:11:53.689Z,18.50
2023-05-09T12:16:55.544Z,18.70
2023-05-09T12:21:59.119Z,19.00
2023-05-09T12:27:01.614Z,19.40
2023-05-09T12:32:03.606Z,19.70
2023-05-09T12:37:15.158Z,19.90
2023-05-09T12:42:16.957Z,20.30
2023-05-09T12:47:18.793Z,20.40
2023-05-09T12:52:21.658Z,21.00
2023-05-09T12:57:28.794Z,21.30
2023-05-09T13:02:41.696Z,21.70
2023-05-09T13:07:46.071Z,22.10
2023-05-09T13:12:49.166Z,22.90
2023-05-09T13:17:52.050Z,23.10
2023-05-09T13:22:53.956Z,23.10
2023-05-09T13:27:55.853Z,23.30
2023-05-09T13:33:00.369Z,24.20
2023-05-09T13:38:06.093Z,24.60
2023-05-09T13:43:07.842Z,24.60
